首页
METAR-TAF:

METAR-TAF

机场 :

迪拜国际机场

杜拜, 阿拉伯联合酋长国

纬度: 25-15-10N, 经度: 055-21-52E, 海拔: 8米

当前天气观测

该预报发布于1小时和7分钟前的23:00 UTC
风速4节,风向南转西南,在西转西南之间变化
温度 33°C
湿度 46%
气压 999 hPa
能见度10公里或以上
1500米以下无云,无积雨云

METAR: OMDB 192300Z 20004KT 170V240 CAVOK 33/20 Q0999 NOSIG

时间: 04:07 (00:07 UTC)

预报

该预报发布于1小时和6分钟前的23:01 UTC
预报有效从20日的 00点(UTC)到 21日的 06点(UTC)
风速2节,风向多变
能見度: 8000
成为
从 20日的 03点(UTC)到 20日的 05点(UTC)
风速10节,风向南转西南
成为
从 20日的 07点(UTC)到 20日的 09点(UTC)
风速10节,风向西北
成为
从 20日的 16点(UTC)到 20日的 18点(UTC)
风速2节,风向多变
成为
从 21日的 02点(UTC)到 21日的 04点(UTC)
风速10节,风向

TAF: OMDB 192301Z 2000/2106 VRB02KT 8000 NSC BECMG 2003/2005 20010KT BECMG 2007/2009 32010KT BECMG 2016/2018 VRB02KT BECMG 2102/2104 18010KT

超过4000个机场的气象观测和天气预报(METAR&TAF报告)。

可查询的气象台以黄色和红色小点在地图上表示。

将鼠标移到小点上方,可查看气象台名称。

然后点击查看天气观测和预报。

如需切换地图:点击带黑十字的绿色按钮放大地图;点击带横线的绿色按钮缩小地图;或者点击绿色箭头查看邻近地区的地图。


METAR-TAF: